createdAt,value
2023-04-28T00:00:59.359Z,3.00
2023-04-28T00:03:29.564Z,3.00
2023-04-28T00:05:58.339Z,3.00
2023-04-28T00:08:27.408Z,2.90
2023-04-28T00:10:55.789Z,2.90
2023-04-28T00:13:24.042Z,2.80
2023-04-28T00:15:53.219Z,2.80
2023-04-28T00:18:21.746Z,2.80
2023-04-28T00:20:51.651Z,2.80
2023-04-28T00:23:19.991Z,2.80
2023-04-28T00:25:52.195Z,2.80
2023-04-28T00:28:33.507Z,2.90
2023-04-28T00:31:03.458Z,2.80
2023-04-28T00:33:31.719Z,2.90
2023-04-28T00:36:02.018Z,3.00
2023-04-28T00:38:30.485Z,3.30
2023-04-28T00:40:58.759Z,3.00
2023-04-28T00:43:27.139Z,3.00
2023-04-28T00:45:55.782Z,3.00
2023-04-28T00:48:24.519Z,3.00
2023-04-28T00:50:52.848Z,3.00
2023-04-28T00:53:22.980Z,3.00
2023-04-28T00:55:53.036Z,2.50
2023-04-28T00:58:21.373Z,3.00
2023-04-28T01:00:49.688Z,3.00
2023-04-28T01:03:18.197Z,3.00
2023-04-28T01:05:46.831Z,3.10
2023-04-28T01:08:15.770Z,3.00
2023-04-28T01:10:46.553Z,3.00
2023-04-28T01:13:29.684Z,3.00
2023-04-28T01:15:58.267Z,2.90
2023-04-28T01:18:27.054Z,2.90
2023-04-28T01:20:56.344Z,2.80
2023-04-28T01:23:24.733Z,2.60
2023-04-28T01:25:54.690Z,2.60
2023-04-28T01:28:22.979Z,2.60
2023-04-28T01:30:51.685Z,2.60
2023-04-28T01:33:20.195Z,2.60
2023-04-28T01:35:49.513Z,2.60
2023-04-28T01:38:20.385Z,2.60
2023-04-28T01:40:48.673Z,2.60
2023-04-28T01:43:18.345Z,2.60
2023-04-28T01:45:50.165Z,2.60
2023-04-28T01:48:18.427Z,2.60
2023-04-28T01:50:48.019Z,2.60
2023-04-28T01:53:20.600Z,2.50
2023-04-28T01:55:49.652Z,2.50
2023-04-28T01:58:21.287Z,2.60
2023-04-28T02:00:49.565Z,2.50
2023-04-28T02:03:18.500Z,2.60
2023-04-28T02:05:46.917Z,2.60
2023-04-28T02:08:16.590Z,2.60
2023-04-28T02:10:45.179Z,2.60
2023-04-28T02:13:13.432Z,2.70
2023-04-28T02:15:44.160Z,2.70
2023-04-28T02:18:12.614Z,2.70
2023-04-28T02:20:44.387Z,2.70
2023-04-28T02:23:12.649Z,2.70
2023-04-28T02:25:40.900Z,2.70
2023-04-28T02:28:09.209Z,2.70
2023-04-28T02:30:37.483Z,2.80
2023-04-28T02:33:07.233Z,2.80
2023-04-28T02:35:35.717Z,2.80
2023-04-28T02:38:04.022Z,2.80
2023-04-28T02:40:32.305Z,2.80
2023-04-28T02:43:00.716Z,2.70
2023-04-28T02:45:29.082Z,2.70
2023-04-28T02:47:57.495Z,2.70
2023-04-28T02:50:27.168Z,2.70
2023-04-28T02:52:55.553Z,2.70
2023-04-28T02:55:24.682Z,2.70
2023-04-28T02:57:54.621Z,2.70
2023-04-28T03:00:22.971Z,2.70
2023-04-28T03:02:53.070Z,2.70
2023-04-28T03:05:21.501Z,2.70
2023-04-28T03:07:52.641Z,2.70
2023-04-28T03:10:21.066Z,2.70
2023-04-28T03:12:49.344Z,2.70
2023-04-28T03:15:17.914Z,2.70
2023-04-28T03:17:46.494Z,2.70
2023-04-28T03:20:16.062Z,2.70
2023-04-28T03:22:44.334Z,2.70
2023-04-28T03:25:14.029Z,2.70
2023-04-28T03:27:49.448Z,2.70
2023-04-28T03:30:17.743Z,2.80
2023-04-28T03:32:46.093Z,2.80
2023-04-28T03:35:15.005Z,2.80
2023-04-28T03:37:44.737Z,2.90
2023-04-28T03:40:14.849Z,2.90
2023-04-28T03:43:15.065Z,2.90
2023-04-28T03:46:01.191Z,3.00
2023-04-28T03:48:29.928Z,3.00
2023-04-28T03:50:58.306Z,3.10
2023-04-28T03:53:27.154Z,3.10
2023-04-28T03:55:57.053Z,3.10
2023-04-28T03:58:25.984Z,3.20
2023-04-28T04:00:54.423Z,3.20
2023-04-28T04:03:26.428Z,3.10
2023-04-28T04:05:57.629Z,3.20
2023-04-28T04:08:25.961Z,3.20
2023-04-28T04:10:56.360Z,3.20
2023-04-28T04:13:24.703Z,3.30
2023-04-28T04:15:53.848Z,3.30
2023-04-28T04:18:26.010Z,3.40
2023-04-28T04:21:16.331Z,3.50
2023-04-28T04:23:44.773Z,3.60
2023-04-28T04:26:15.300Z,3.60
2023-04-28T04:28:43.639Z,3.60
2023-04-28T04:31:12.582Z,3.70
2023-04-28T04:33:40.940Z,3.70
2023-04-28T04:36:09.485Z,3.70
2023-04-28T04:38:37.898Z,3.70
2023-04-28T04:41:21.301Z,3.70
2023-04-28T04:43:51.923Z,3.80
2023-04-28T04:46:20.811Z,3.80
2023-04-28T04:48:49.295Z,3.90
2023-04-28T04:51:17.836Z,3.90
2023-04-28T04:53:46.524Z,3.90
2023-04-28T04:56:16.007Z,3.90
2023-04-28T04:58:46.297Z,4.00
2023-04-28T05:01:38.458Z,4.00
2023-04-28T05:04:07.515Z,4.10
2023-04-28T05:06:36.172Z,4.20
2023-04-28T05:09:04.511Z,4.20
2023-04-28T05:11:34.341Z,4.30
2023-04-28T05:14:04.061Z,4.20
2023-04-28T05:16:32.803Z,4.20
2023-04-28T05:19:11.846Z,4.20
2023-04-28T05:21:40.102Z,4.30
2023-04-28T05:24:08.603Z,4.30
2023-04-28T05:26:37.398Z,4.40
2023-04-28T05:29:11.657Z,4.50
2023-04-28T05:31:40.832Z,4.60
2023-04-28T05:34:10.540Z,4.80
2023-04-28T05:36:39.996Z,4.80
2023-04-28T05:39:11.064Z,4.80
2023-04-28T05:41:41.208Z,4.90
2023-04-28T05:44:11.271Z,4.90
2023-04-28T05:46:39.887Z,5.00
2023-04-28T05:49:08.320Z,5.10
2023-04-28T05:51:38.982Z,5.20
2023-04-28T05:54:07.423Z,5.30
2023-04-28T05:56:43.907Z,5.40
2023-04-28T05:59:13.867Z,5.50
2023-04-28T06:01:43.378Z,5.60
2023-04-28T06:04:12.223Z,5.80
2023-04-28T06:06:41.833Z,5.90
2023-04-28T06:09:12.200Z,6.00
2023-04-28T06:11:40.699Z,6.10
2023-04-28T06:14:09.111Z,6.10
2023-04-28T06:16:39.863Z,6.10
2023-04-28T06:19:08.548Z,6.30
2023-04-28T06:21:37.155Z,6.30
2023-04-28T06:24:05.629Z,6.50
2023-04-28T06:26:35.437Z,6.70
2023-04-28T06:29:04.172Z,6.70
2023-04-28T06:31:32.517Z,6.60
2023-04-28T06:34:02.314Z,6.50
2023-04-28T06:36:30.632Z,6.30
2023-04-28T06:38:59.492Z,6.30
2023-04-28T06:41:29.344Z,6.40
2023-04-28T06:43:59.274Z,6.40
2023-04-28T06:46:31.851Z,6.50
2023-04-28T06:49:00.264Z,6.60
2023-04-28T06:51:30.496Z,6.70
2023-04-28T06:53:58.826Z,6.70
2023-04-28T06:56:27.471Z,6.90
2023-04-28T06:58:59.081Z,7.00
2023-04-28T07:01:27.533Z,7.00
2023-04-28T07:03:55.900Z,7.10
2023-04-28T07:06:27.480Z,7.20
2023-04-28T07:08:57.145Z,7.20
2023-04-28T07:11:25.447Z,7.40
2023-04-28T07:13:53.804Z,7.40
2023-04-28T07:16:22.695Z,7.60
2023-04-28T07:18:50.978Z,7.60
2023-04-28T07:21:19.296Z,7.70
2023-04-28T07:23:49.087Z,7.90
2023-04-28T07:26:18.911Z,8.10
2023-04-28T07:28:47.482Z,8.20
2023-04-28T07:31:15.832Z,8.40
2023-04-28T07:33:44.226Z,8.50
2023-04-28T07:36:15.723Z,8.60
2023-04-28T07:38:44.166Z,8.60
2023-04-28T07:41:12.627Z,8.70
2023-04-28T07:43:42.484Z,8.70
2023-04-28T07:46:10.905Z,8.80
2023-04-28T07:48:39.357Z,8.80
2023-04-28T07:51:07.778Z,8.80
2023-04-28T07:53:37.431Z,8.70
2023-04-28T07:56:05.917Z,8.70
2023-04-28T07:58:35.314Z,8.70
2023-04-28T08:01:05.242Z,8.60
2023-04-28T08:03:33.729Z,8.50
2023-04-28T08:06:02.429Z,8.40
2023-04-28T08:08:31.293Z,8.50
2023-04-28T08:11:00.131Z,8.60
2023-04-28T08:13:29.131Z,8.70
2023-04-28T08:15:57.609Z,8.60
2023-04-28T08:18:27.582Z,8.50
2023-04-28T08:20:56.031Z,8.30
2023-04-28T08:23:28.369Z,8.30
2023-04-28T08:25:56.679Z,8.20
2023-04-28T08:28:25.016Z,8.20
2023-04-28T08:30:55.832Z,8.20
2023-04-28T08:33:24.839Z,8.30
2023-04-28T08:35:55.186Z,8.30
2023-04-28T08:38:25.254Z,8.10
2023-04-28T08:40:53.521Z,8.10
2023-04-28T08:43:22.063Z,8.30
2023-04-28T08:45:50.431Z,8.60
2023-04-28T08:48:21.356Z,8.80
2023-04-28T08:50:51.184Z,8.90
2023-04-28T08:53:23.644Z,9.00
2023-04-28T08:55:53.165Z,9.30
2023-04-28T08:58:21.830Z,9.40
2023-04-28T09:00:50.160Z,9.60
2023-04-28T09:03:18.735Z,9.70
2023-04-28T09:05:49.214Z,9.90
2023-04-28T09:08:18.982Z,10.00
2023-04-28T09:10:48.748Z,9.90
2023-04-28T09:13:26.163Z,9.90
2023-04-28T09:16:00.541Z,9.90
2023-04-28T09:18:28.929Z,10.00
2023-04-28T09:21:04.450Z,10.20
2023-04-28T09:23:33.634Z,10.30
2023-04-28T09:26:04.389Z,10.30
2023-04-28T09:28:32.953Z,10.10
2023-04-28T09:31:01.531Z,9.80
2023-04-28T09:33:29.942Z,9.60
2023-04-28T09:35:58.514Z,9.40
2023-04-28T09:38:27.305Z,9.30
2023-04-28T09:40:59.138Z,9.10
2023-04-28T09:43:29.804Z,9.10
2023-04-28T09:45:59.206Z,9.00
2023-04-28T09:48:32.185Z,9.00
2023-04-28T09:51:00.804Z,9.00
2023-04-28T09:53:29.704Z,8.90
2023-04-28T09:55:58.925Z,8.80
2023-04-28T09:58:29.341Z,9.10
2023-04-28T10:00:58.965Z,9.50
2023-04-28T10:03:29.673Z,10.00
2023-04-28T10:05:58.775Z,10.40
2023-04-28T10:08:28.434Z,10.50
2023-04-28T10:10:57.950Z,10.50
2023-04-28T10:13:26.577Z,10.50
2023-04-28T10:15:58.500Z,10.50
2023-04-28T10:18:27.104Z,10.30
2023-04-28T10:20:59.450Z,10.20
2023-04-28T10:23:42.556Z,10.00
2023-04-28T10:26:12.800Z,9.70
2023-04-28T10:28:46.198Z,9.60
2023-04-28T10:31:16.590Z,9.50
2023-04-28T10:33:45.262Z,9.40
2023-04-28T10:36:45.929Z,9.20
2023-04-28T10:39:14.377Z,9.10
2023-04-28T10:41:42.620Z,9.10
2023-04-28T10:44:34.776Z,8.90
2023-04-28T10:47:05.204Z,8.80
2023-04-28T10:49:48.346Z,8.90
2023-04-28T10:52:36.953Z,8.90
2023-04-28T10:55:22.905Z,9.00
2023-04-28T10:58:16.737Z,9.20
2023-04-28T11:00:45.691Z,9.50
2023-04-28T11:03:29.105Z,9.90
2023-04-28T11:06:16.566Z,10.10
2023-04-28T11:08:47.360Z,10.10
2023-04-28T11:11:16.354Z,10.00
2023-04-28T11:13:47.106Z,9.90
2023-04-28T11:16:19.330Z,9.80
2023-04-28T11:18:54.941Z,9.60
2023-04-28T11:21:24.623Z,9.40
2023-04-28T11:23:54.463Z,9.30
2023-04-28T11:26:23.814Z,9.20
2023-04-28T11:28:53.344Z,9.10
2023-04-28T11:31:23.636Z,9.10
2023-04-28T11:33:54.458Z,8.90
2023-04-28T11:36:26.574Z,8.70
2023-04-28T11:38:56.954Z,8.70
2023-04-28T11:41:25.571Z,8.90
2023-04-28T11:43:53.945Z,9.10
2023-04-28T11:46:23.357Z,9.10
2023-04-28T11:49:01.604Z,9.10
2023-04-28T11:51:33.918Z,9.20
2023-04-28T11:54:04.096Z,9.30
2023-04-28T11:56:32.882Z,9.50
2023-04-28T11:59:03.682Z,9.80
2023-04-28T12:01:32.745Z,10.00
2023-04-28T12:04:03.579Z,10.10
2023-04-28T12:06:32.541Z,9.90
2023-04-28T12:09:18.043Z,9.80
2023-04-28T12:11:57.343Z,9.90
2023-04-28T12:14:25.984Z,9.90
2023-04-28T12:16:54.398Z,9.70
2023-04-28T12:19:22.690Z,9.60
2023-04-28T12:22:00.539Z,9.40
2023-04-28T12:24:30.661Z,9.40
2023-04-28T12:27:18.202Z,9.40
2023-04-28T12:29:47.870Z,9.40
2023-04-28T12:32:16.255Z,9.50
2023-04-28T12:34:46.245Z,9.60
2023-04-28T12:37:15.013Z,9.70
2023-04-28T12:39:44.904Z,9.70
2023-04-28T12:42:13.581Z,9.80
2023-04-28T12:44:41.816Z,9.80
2023-04-28T12:47:11.299Z,9.90
2023-04-28T12:49:39.945Z,10.00
2023-04-28T12:52:08.251Z,10.00
2023-04-28T12:54:36.953Z,10.00
2023-04-28T12:57:07.107Z,10.10
2023-04-28T12:59:35.416Z,10.00
2023-04-28T13:02:04.001Z,9.90
2023-04-28T13:04:32.875Z,9.80
2023-04-28T13:07:03.853Z,9.80
2023-04-28T13:09:32.106Z,9.90
2023-04-28T13:12:00.376Z,10.00
2023-04-28T13:14:30.023Z,9.90
2023-04-28T13:16:59.085Z,9.70
2023-04-28T13:19:27.914Z,9.60
2023-04-28T13:21:56.192Z,9.40
2023-04-28T13:24:24.448Z,9.10
2023-04-28T13:26:53.107Z,8.60
2023-04-28T13:29:22.438Z,8.50
2023-04-28T13:31:52.268Z,8.40
2023-04-28T13:34:20.621Z,8.40
2023-04-28T13:36:51.082Z,8.50
2023-04-28T13:39:20.419Z,8.60
2023-04-28T13:41:49.137Z,8.60
2023-04-28T13:44:17.480Z,8.70
2023-04-28T13:46:47.380Z,8.60
2023-04-28T13:49:17.180Z,8.50
2023-04-28T13:51:45.913Z,8.60
2023-04-28T13:54:14.366Z,8.70
2023-04-28T13:56:42.776Z,8.80
2023-04-28T13:59:11.175Z,8.90
2023-04-28T14:01:39.560Z,8.90
2023-04-28T14:04:08.273Z,8.90
2023-04-28T14:06:39.659Z,8.90
2023-04-28T14:09:08.236Z,9.00
2023-04-28T14:11:36.519Z,9.10
2023-04-28T14:14:06.007Z,9.20
2023-04-28T14:16:34.454Z,9.30
2023-04-28T14:19:02.798Z,9.30
2023-04-28T14:21:31.301Z,9.60
2023-04-28T14:24:00.997Z,9.70
2023-04-28T14:26:29.522Z,9.80
2023-04-28T14:28:58.062Z,9.70
2023-04-28T14:31:26.474Z,9.40
2023-04-28T14:33:54.757Z,9.20
2023-04-28T14:36:23.302Z,9.10
2023-04-28T14:38:51.866Z,9.00
2023-04-28T14:41:21.620Z,8.90
2023-04-28T14:43:49.901Z,8.80
2023-04-28T14:46:23.748Z,8.80
2023-04-28T14:48:52.581Z,8.70
2023-04-28T14:51:21.914Z,8.70
2023-04-28T14:53:51.056Z,8.70
2023-04-28T14:56:20.528Z,8.70
2023-04-28T14:58:50.564Z,8.60
2023-04-28T15:01:19.705Z,8.50
2023-04-28T15:03:48.085Z,8.40
2023-04-28T15:06:20.925Z,8.40
2023-04-28T15:08:51.755Z,8.50
2023-04-28T15:11:20.054Z,8.50
2023-04-28T15:13:48.325Z,8.50
2023-04-28T15:16:18.010Z,8.60
2023-04-28T15:18:46.933Z,8.60
2023-04-28T15:21:15.229Z,8.70
2023-04-28T15:23:43.791Z,8.80
2023-04-28T15:26:12.161Z,9.10
2023-04-28T15:28:42.246Z,9.50
2023-04-28T15:31:10.588Z,9.70
2023-04-28T15:33:40.311Z,9.90
2023-04-28T15:36:08.889Z,10.20
2023-04-28T15:38:38.551Z,10.10
2023-04-28T15:41:06.988Z,10.00
2023-04-28T15:43:35.271Z,9.80
2023-04-28T15:46:04.435Z,9.70
2023-04-28T15:48:32.754Z,9.60
2023-04-28T15:51:02.452Z,9.50
2023-04-28T15:53:31.100Z,9.40
2023-04-28T15:55:59.398Z,9.40
2023-04-28T15:58:27.848Z,9.30
2023-04-28T16:00:56.149Z,9.30
2023-04-28T16:03:24.683Z,9.30
2023-04-28T16:05:54.477Z,9.30
2023-04-28T16:08:25.424Z,9.30
2023-04-28T16:10:53.858Z,9.30
2023-04-28T16:13:22.419Z,9.30
2023-04-28T16:15:51.870Z,9.30
2023-04-28T16:18:20.141Z,9.30
2023-04-28T16:20:48.399Z,9.30
2023-04-28T16:23:17.023Z,9.20
2023-04-28T16:25:47.832Z,9.20
2023-04-28T16:28:16.210Z,9.20
2023-04-28T16:30:54.660Z,9.20
2023-04-28T16:33:25.074Z,9.20
2023-04-28T16:35:56.840Z,9.10
2023-04-28T16:38:25.066Z,9.10
2023-04-28T16:40:54.769Z,9.10
2023-04-28T16:43:23.039Z,9.00
2023-04-28T16:45:51.315Z,9.00
2023-04-28T16:48:20.346Z,8.90
2023-04-28T16:50:48.576Z,8.90
2023-04-28T16:53:16.854Z,8.90
2023-04-28T16:55:45.093Z,8.90
2023-04-28T16:58:14.771Z,8.90
2023-04-28T17:00:43.035Z,8.90
2023-04-28T17:03:11.752Z,8.70
2023-04-28T17:05:40.186Z,8.60
2023-04-28T17:08:08.427Z,8.50
2023-04-28T17:10:38.137Z,8.50
2023-04-28T17:13:07.351Z,8.40
2023-04-28T17:15:38.572Z,8.30
2023-04-28T17:18:06.901Z,8.30
2023-04-28T17:20:35.469Z,8.20
2023-04-28T17:23:03.730Z,8.20
2023-04-28T17:25:31.954Z,8.20
2023-04-28T17:28:00.519Z,8.20
2023-04-28T17:30:28.795Z,8.30
2023-04-28T17:32:59.074Z,8.30
2023-04-28T17:35:27.595Z,8.20
2023-04-28T17:37:56.276Z,8.20
2023-04-28T17:40:24.697Z,8.10
2023-04-28T17:42:53.206Z,8.10
2023-04-28T17:45:21.505Z,8.10
2023-04-28T17:47:49.908Z,8.20
2023-04-28T17:50:19.790Z,8.20
2023-04-28T17:52:48.064Z,8.20
2023-04-28T17:55:16.351Z,8.20
2023-04-28T17:57:44.575Z,8.10
2023-04-28T18:00:13.601Z,8.10
2023-04-28T18:02:42.224Z,8.10
2023-04-28T18:05:10.753Z,8.10
2023-04-28T18:07:40.508Z,8.10
2023-04-28T18:10:08.913Z,8.10
2023-04-28T18:12:37.259Z,8.10
2023-04-28T18:15:05.835Z,8.00
2023-04-28T18:17:34.231Z,8.00
2023-04-28T18:20:02.485Z,8.00
2023-04-28T18:22:30.796Z,8.00
2023-04-28T18:25:00.645Z,7.90
2023-04-28T18:27:29.007Z,7.90
2023-04-28T18:29:57.244Z,7.80
2023-04-28T18:32:25.603Z,7.80
2023-04-28T18:34:53.893Z,7.80
2023-04-28T18:37:22.161Z,7.70
2023-04-28T18:39:50.490Z,7.80
2023-04-28T18:42:20.161Z,7.80
2023-04-28T18:44:48.612Z,7.80
2023-04-28T18:47:17.284Z,7.70
2023-04-28T18:49:45.992Z,7.60
2023-04-28T18:52:14.242Z,7.50
2023-04-28T18:54:42.584Z,7.50
2023-04-28T18:57:10.870Z,7.60
2023-04-28T18:59:40.539Z,7.30
2023-04-28T19:02:09.125Z,7.30
2023-04-28T19:04:39.237Z,7.20
2023-04-28T19:07:07.700Z,7.20
2023-04-28T19:09:36.068Z,7.30
2023-04-28T19:12:04.324Z,7.20
2023-04-28T19:14:33.370Z,7.20
2023-04-28T19:17:03.665Z,7.20
2023-04-28T19:19:32.028Z,7.00
2023-04-28T19:22:00.727Z,6.90
2023-04-28T19:24:29.750Z,6.80
2023-04-28T19:49:26.224Z,6.70
2023-04-28T19:51:54.513Z,6.60
2023-04-28T19:54:23.648Z,6.50
2023-04-28T19:56:52.261Z,6.40
2023-04-28T19:59:20.588Z,6.20
2023-04-28T20:01:50.118Z,6.10
2023-04-28T20:04:19.198Z,6.10
2023-04-28T20:06:49.032Z,5.90
2023-04-28T20:09:17.753Z,6.00
2023-04-28T20:11:45.984Z,5.70
2023-04-28T20:14:14.242Z,5.60
2023-04-28T20:16:42.487Z,5.60
2023-04-28T20:19:10.909Z,5.50
2023-04-28T20:21:39.721Z,5.60
2023-04-28T20:24:09.434Z,5.50
2023-04-28T20:26:38.020Z,5.40
2023-04-28T20:29:08.407Z,5.20
2023-04-28T20:31:36.971Z,5.10
2023-04-28T20:34:05.594Z,5.00
2023-04-28T20:36:34.260Z,4.90
2023-04-28T20:39:02.514Z,4.70
2023-04-28T20:41:32.681Z,4.60
2023-04-28T20:46:30.021Z,4.40
2023-04-28T20:48:58.350Z,4.40
2023-04-28T20:51:29.062Z,4.30
2023-04-28T20:53:57.808Z,4.20
2023-04-28T20:56:26.054Z,4.10
2023-04-28T20:58:55.768Z,4.20
2023-04-28T21:01:24.323Z,4.10
2023-04-28T21:03:53.350Z,4.10
2023-04-28T21:06:22.919Z,4.10
2023-04-28T21:08:51.195Z,4.10
2023-04-28T21:11:19.870Z,4.10
2023-04-28T21:13:48.258Z,4.00
2023-04-28T21:16:20.958Z,4.00
2023-04-28T21:18:50.397Z,3.90
2023-04-28T21:21:18.762Z,3.90
2023-04-28T21:23:47.161Z,3.90
2023-04-28T21:26:15.532Z,3.80
2023-04-28T21:28:43.914Z,3.70
2023-04-28T21:31:12.242Z,3.60
2023-04-28T21:33:41.931Z,3.60
2023-04-28T21:36:10.270Z,3.60
2023-04-28T21:38:39.071Z,3.50
2023-04-28T21:41:08.866Z,3.50
2023-04-28T21:43:37.212Z,3.50
2023-04-28T21:46:05.549Z,3.40
2023-04-28T21:48:33.864Z,3.50
2023-04-28T21:51:03.594Z,3.40
2023-04-28T21:53:32.151Z,3.40
2023-04-28T21:56:00.638Z,3.30
2023-04-28T21:58:28.923Z,3.30
2023-04-28T22:00:57.281Z,3.20
2023-04-28T22:03:25.702Z,3.20
2023-04-28T22:05:54.155Z,3.20
2023-04-28T22:08:23.889Z,3.10
2023-04-28T22:10:52.217Z,3.10
2023-04-28T22:13:22.856Z,3.10
2023-04-28T22:15:51.165Z,3.20
2023-04-28T22:18:19.577Z,3.20
2023-04-28T22:20:47.842Z,3.20
2023-04-28T22:23:16.266Z,3.20
2023-04-28T22:25:46.423Z,3.20
2023-04-28T22:28:15.664Z,3.20
2023-04-28T22:30:44.504Z,3.20
2023-04-28T22:33:13.070Z,3.20
2023-04-28T22:35:41.651Z,3.20
2023-04-28T22:38:10.049Z,3.20
2023-04-28T22:40:38.584Z,3.10
2023-04-28T22:43:08.660Z,3.10
2023-04-28T22:45:37.156Z,3.10
2023-04-28T22:48:05.913Z,3.10
2023-04-28T22:50:34.282Z,3.10
2023-04-28T22:53:03.677Z,3.20
2023-04-28T22:55:32.189Z,3.10
2023-04-28T22:58:00.475Z,3.10
2023-04-28T23:00:30.124Z,3.10
2023-04-28T23:02:58.488Z,3.10
2023-04-28T23:05:26.816Z,3.10
2023-04-28T23:07:55.151Z,3.00
2023-04-28T23:10:23.432Z,3.00
2023-04-28T23:12:51.900Z,3.00
2023-04-28T23:15:20.119Z,3.00
2023-04-28T23:17:49.830Z,3.00
2023-04-28T23:20:18.274Z,3.00
2023-04-28T23:22:46.670Z,2.90
2023-04-28T23:25:15.371Z,2.90
2023-04-28T23:27:43.617Z,2.90
2023-04-28T23:30:12.385Z,2.90
2023-04-28T23:32:40.781Z,2.90
2023-04-28T23:35:10.864Z,2.90
2023-04-28T23:37:39.127Z,2.80
2023-04-28T23:40:08.197Z,2.80
2023-04-28T23:42:36.478Z,2.80
2023-04-28T23:45:06.469Z,2.80
2023-04-28T23:47:34.898Z,2.80
2023-04-28T23:50:05.066Z,2.90
2023-04-28T23:52:35.041Z,2.90
2023-04-28T23:55:03.297Z,2.90
2023-04-28T23:57:31.875Z,2.80
